Siros, Greece
Current Conditions -  °F | °C
As of 11:50 AM on Monday 22 Dec 2014 (Local Time) from LGMK Reporting Station
Few Clouds Few Clouds  
Wind Chill: 52°   Ceiling: Unl
Heat Index: 52°   Visibility: 6mi
Dew Point: 32°   Wind: 16mph
Humidity: 47%   Direction: 20°NNE
Pressure: 30.36"   Gusts: NA
Location:  37.45°N, 24.93°E
Report Text: LGMK 220850Z 02014KT 9999 FEW020 11/00 Q1028
Loading
Personal Weather Stations






























Interactive Weather Map New forecast layout! Learn more

10-Day Weather Forecast

Advertisements
Track Severe Weather on mobile